createdAt,value
2023-03-16T00:02:19.746Z,2.13
2023-03-16T00:04:49.233Z,2.15
2023-03-16T00:07:17.623Z,2.08
2023-03-16T00:09:47.311Z,2.20
2023-03-16T00:12:17.646Z,2.35
2023-03-16T00:14:48.144Z,2.42
2023-03-16T00:17:20.071Z,2.20
2023-03-16T00:19:51.571Z,2.25
2023-03-16T00:22:20.064Z,2.83
2023-03-16T00:24:49.873Z,2.40
2023-03-16T00:27:18.552Z,2.53
2023-03-16T00:29:49.054Z,2.38
2023-03-16T00:32:19.380Z,2.30
2023-03-16T00:34:48.617Z,2.42
2023-03-16T00:37:19.342Z,2.30
2023-03-16T00:39:49.088Z,2.33
2023-03-16T00:42:18.939Z,2.25
2023-03-16T00:44:48.050Z,2.63
2023-03-16T00:47:16.437Z,2.05
2023-03-16T00:49:45.494Z,2.20
2023-03-16T00:52:15.012Z,2.20
2023-03-16T00:54:44.584Z,2.40
2023-03-16T00:57:16.424Z,2.40
2023-03-16T00:59:44.798Z,2.30
2023-03-16T01:02:13.993Z,2.65
2023-03-16T01:04:44.320Z,2.25
2023-03-16T01:07:15.036Z,2.20
2023-03-16T01:09:43.859Z,2.60
2023-03-16T01:12:16.844Z,1.98
2023-03-16T01:14:46.964Z,2.20
2023-03-16T01:17:17.187Z,2.25
2023-03-16T01:19:46.226Z,1.85
2023-03-16T01:22:16.084Z,2.03
2023-03-16T01:24:46.650Z,2.25
2023-03-16T01:27:16.553Z,2.03
2023-03-16T01:29:45.211Z,2.20
2023-03-16T01:32:14.302Z,2.08
2023-03-16T01:34:43.407Z,2.03
2023-03-16T01:37:13.871Z,2.50
2023-03-16T01:40:00.727Z,2.03
2023-03-16T01:42:30.500Z,1.92
2023-03-16T01:45:05.404Z,2.10
2023-03-16T01:47:38.332Z,1.83
2023-03-16T01:50:08.967Z,2.40
2023-03-16T01:52:40.980Z,2.38
2023-03-16T01:55:13.135Z,2.10
2023-03-16T01:57:45.963Z,1.98
2023-03-16T02:00:19.475Z,2.10
2023-03-16T02:03:16.342Z,2.00
2023-03-16T02:06:10.852Z,1.90
2023-03-16T02:08:45.214Z,1.70
2023-03-16T02:11:17.906Z,1.92
2023-03-16T02:14:04.164Z,1.92
2023-03-16T02:16:32.790Z,1.50
2023-03-16T02:19:01.271Z,1.95
2023-03-16T02:21:35.637Z,1.80
2023-03-16T02:24:06.495Z,1.85
2023-03-16T02:26:44.781Z,1.80
2023-03-16T02:29:27.760Z,2.20
2023-03-16T02:31:59.855Z,1.90
2023-03-16T02:34:29.777Z,2.10
2023-03-16T02:36:59.943Z,2.03
2023-03-16T02:39:29.459Z,2.00
2023-03-16T02:41:58.043Z,2.00
2023-03-16T02:44:29.993Z,2.33
2023-03-16T02:47:04.656Z,2.50
2023-03-16T02:49:37.430Z,2.37
2023-03-16T02:52:07.029Z,2.30
2023-03-16T02:54:35.645Z,2.30
2023-03-16T02:57:04.851Z,2.42
2023-03-16T02:59:34.296Z,2.58
2023-03-16T03:02:04.264Z,2.47
2023-03-16T03:04:32.951Z,2.72
2023-03-16T03:07:04.833Z,2.50
2023-03-16T03:09:38.887Z,2.60
2023-03-16T03:12:07.317Z,2.85
2023-03-16T03:14:38.682Z,2.65
2023-03-16T03:17:10.666Z,2.72
2023-03-16T03:19:39.033Z,2.30
2023-03-16T03:22:07.451Z,2.80
2023-03-16T03:24:36.411Z,2.15
2023-03-16T03:27:05.751Z,2.50
2023-03-16T03:29:36.013Z,2.80
2023-03-16T03:32:05.440Z,2.50
2023-03-16T03:34:35.199Z,2.58
2023-03-16T03:37:03.864Z,2.20
2023-03-16T03:39:32.659Z,2.30
2023-03-16T03:42:03.033Z,2.95
2023-03-16T03:44:34.489Z,2.33
2023-03-16T03:47:03.097Z,2.47
2023-03-16T03:49:32.617Z,2.40
2023-03-16T03:52:04.926Z,2.55
2023-03-16T03:54:33.330Z,2.63
2023-03-16T03:57:06.965Z,2.53
2023-03-16T03:59:42.342Z,2.10
2023-03-16T04:02:29.471Z,2.42
2023-03-16T04:04:58.466Z,1.85
2023-03-16T04:07:28.208Z,2.50
2023-03-16T04:10:02.143Z,2.17
2023-03-16T04:12:36.575Z,2.70
2023-03-16T04:15:06.023Z,2.22
2023-03-16T04:17:42.141Z,2.45
2023-03-16T04:20:16.028Z,2.17
2023-03-16T04:22:48.587Z,2.17
2023-03-16T04:25:19.244Z,2.72
2023-03-16T04:27:49.242Z,2.25
2023-03-16T04:30:18.988Z,2.17
2023-03-16T04:32:52.156Z,1.90
2023-03-16T04:35:22.090Z,1.95
2023-03-16T04:37:55.843Z,2.60
2023-03-16T04:40:30.712Z,2.20
2023-03-16T04:43:07.977Z,2.13
2023-03-16T04:45:37.269Z,2.15
2023-03-16T04:48:06.508Z,2.20
2023-03-16T04:50:35.494Z,2.30
2023-03-16T04:53:05.473Z,2.30
2023-03-16T04:55:34.411Z,2.60
2023-03-16T04:58:03.537Z,2.08
2023-03-16T05:00:35.968Z,2.20
2023-03-16T05:03:10.219Z,1.88
2023-03-16T05:05:39.175Z,2.10
2023-03-16T05:08:10.749Z,2.50
2023-03-16T05:10:41.092Z,2.38
2023-03-16T05:13:09.593Z,2.10
2023-03-16T05:15:39.257Z,1.95
2023-03-16T05:18:24.893Z,2.25
2023-03-16T05:20:55.793Z,2.03
2023-03-16T05:23:29.465Z,2.28
2023-03-16T05:26:02.796Z,2.03
2023-03-16T05:28:33.645Z,2.08
2023-03-16T05:31:05.735Z,1.88
2023-03-16T05:33:40.648Z,2.20
2023-03-16T05:36:13.019Z,1.95
2023-03-16T05:38:45.522Z,2.22
2023-03-16T05:41:21.485Z,2.20
2023-03-16T05:44:06.198Z,2.13
2023-03-16T05:46:54.097Z,2.20
2023-03-16T05:49:22.671Z,2.00
2023-03-16T05:51:51.591Z,2.35
2023-03-16T05:54:21.656Z,2.17
2023-03-16T05:56:50.000Z,2.00
2023-03-16T05:59:19.040Z,2.47
2023-03-16T06:01:53.054Z,1.90
2023-03-16T06:04:22.864Z,2.10
2023-03-16T06:06:51.294Z,1.95
2023-03-16T06:09:27.089Z,1.90
2023-03-16T06:11:57.098Z,2.13
2023-03-16T06:14:26.360Z,2.03
2023-03-16T06:16:56.669Z,1.90
2023-03-16T06:19:25.663Z,2.28
2023-03-16T06:21:59.426Z,2.10
2023-03-16T06:24:30.992Z,1.98
2023-03-16T06:26:59.435Z,1.85
2023-03-16T06:29:34.358Z,1.90
2023-03-16T06:32:04.230Z,2.00
2023-03-16T06:34:34.671Z,2.15
2023-03-16T06:37:04.982Z,2.00
2023-03-16T06:39:35.526Z,1.75
2023-03-16T06:42:05.338Z,2.00
2023-03-16T06:44:34.206Z,1.52
2023-03-16T06:47:10.348Z,1.75
2023-03-16T06:49:38.950Z,1.60
2023-03-16T06:52:15.628Z,1.50
2023-03-16T06:54:45.627Z,1.80
2023-03-16T06:57:14.989Z,1.67
2023-03-16T06:59:44.517Z,1.70
2023-03-16T07:02:14.891Z,1.70
2023-03-16T07:04:43.955Z,1.80
2023-03-16T07:07:13.075Z,1.40
2023-03-16T07:09:42.032Z,1.60
2023-03-16T07:12:13.695Z,1.92
2023-03-16T07:14:42.097Z,1.20
2023-03-16T07:17:13.362Z,1.40
2023-03-16T07:19:41.800Z,1.50
2023-03-16T07:22:10.662Z,1.50
2023-03-16T07:24:41.627Z,1.52
2023-03-16T07:27:12.354Z,1.40
2023-03-16T07:29:42.807Z,1.35
2023-03-16T07:32:11.450Z,1.50
2023-03-16T07:34:41.923Z,1.60
2023-03-16T07:37:10.377Z,1.50
2023-03-16T07:39:39.105Z,1.50
2023-03-16T07:42:12.535Z,1.58
2023-03-16T07:44:53.021Z,1.55
2023-03-16T07:47:23.299Z,1.88
2023-03-16T07:49:53.744Z,1.38
2023-03-16T07:52:22.461Z,1.65
2023-03-16T07:54:52.193Z,1.50
2023-03-16T07:57:20.982Z,1.42
2023-03-16T07:59:49.323Z,1.65
2023-03-16T08:02:21.898Z,1.40
2023-03-16T08:04:51.456Z,1.38
2023-03-16T08:07:19.871Z,1.65
2023-03-16T08:09:55.421Z,1.50
2023-03-16T08:12:30.139Z,1.50
2023-03-16T08:14:58.691Z,1.52
2023-03-16T08:17:31.573Z,1.35
2023-03-16T08:20:01.861Z,1.90
2023-03-16T08:22:30.929Z,1.70
2023-03-16T08:24:59.287Z,1.35
2023-03-16T08:27:29.464Z,1.73
2023-03-16T08:30:04.947Z,6.50
2023-03-16T08:32:36.477Z,1.50
2023-03-16T08:35:05.427Z,1.48
2023-03-16T08:37:34.575Z,1.58
2023-03-16T08:40:03.875Z,1.40
2023-03-16T08:42:32.497Z,1.30
2023-03-16T08:45:12.370Z,1.10
2023-03-16T08:47:44.820Z,1.20
2023-03-16T08:50:15.535Z,1.23
2023-03-16T08:52:44.170Z,1.10
2023-03-16T08:55:13.200Z,1.40
2023-03-16T08:57:41.660Z,1.42
2023-03-16T09:00:13.635Z,1.27
2023-03-16T09:02:44.513Z,1.05
2023-03-16T09:05:14.614Z,1.20
2023-03-16T09:07:43.587Z,1.23
2023-03-16T09:10:15.297Z,1.52
2023-03-16T09:12:44.470Z,1.08
2023-03-16T09:15:13.931Z,1.10
2023-03-16T09:17:45.033Z,1.23
2023-03-16T09:20:22.286Z,1.10
2023-03-16T09:22:55.656Z,1.20
2023-03-16T09:25:24.123Z,1.10
2023-03-16T09:27:52.613Z,1.00
2023-03-16T09:30:21.010Z,0.93
2023-03-16T09:32:50.790Z,1.20
2023-03-16T09:35:19.481Z,1.30
2023-03-16T09:38:04.679Z,1.10
2023-03-16T09:43:19.946Z,1.10
2023-03-16T09:45:54.232Z,1.25
2023-03-16T09:48:25.102Z,1.10
2023-03-16T09:50:55.685Z,1.20
2023-03-16T09:53:29.256Z,0.93
2023-03-16T09:56:01.870Z,1.25
2023-03-16T09:58:32.109Z,1.10
2023-03-16T10:01:09.948Z,1.20
2023-03-16T10:03:57.207Z,1.27
2023-03-16T10:06:27.856Z,1.00
2023-03-16T10:09:07.427Z,1.08
2023-03-16T10:11:39.104Z,1.20
2023-03-16T10:14:17.582Z,1.08
2023-03-16T10:16:50.477Z,1.17
2023-03-16T10:19:25.755Z,1.00
2023-03-16T10:21:57.932Z,1.00
2023-03-16T10:24:42.755Z,1.00
2023-03-16T10:27:21.436Z,1.15
2023-03-16T10:29:50.388Z,1.02
2023-03-16T10:32:19.924Z,1.00
2023-03-16T10:34:57.512Z,1.08
2023-03-16T10:37:28.206Z,1.00
2023-03-16T10:39:57.191Z,1.00
2023-03-16T10:42:27.024Z,0.90
2023-03-16T10:45:01.955Z,1.00
2023-03-16T10:47:32.846Z,0.90
2023-03-16T10:50:14.193Z,0.77
2023-03-16T10:52:46.720Z,0.90
2023-03-16T10:55:20.458Z,0.80
2023-03-16T10:57:51.121Z,0.90
2023-03-16T11:00:23.080Z,0.60
2023-03-16T11:02:54.162Z,1.02
2023-03-16T11:05:31.126Z,0.80
2023-03-16T11:08:02.698Z,0.80
2023-03-16T11:10:36.255Z,1.00
2023-03-16T11:13:14.572Z,0.95
2023-03-16T11:15:49.992Z,0.80
2023-03-16T11:18:30.549Z,0.90
2023-03-16T11:21:06.354Z,0.80
2023-03-16T11:23:39.975Z,0.70
2023-03-16T11:26:17.461Z,0.80
2023-03-16T11:28:50.390Z,0.90
2023-03-16T11:31:24.884Z,1.00
2023-03-16T11:33:55.358Z,0.77
2023-03-16T11:36:39.804Z,0.95
2023-03-16T11:39:15.230Z,0.90
2023-03-16T11:41:56.459Z,0.93
2023-03-16T11:44:33.740Z,0.85
2023-03-16T11:47:09.048Z,0.98
2023-03-16T11:49:50.429Z,1.08
2023-03-16T11:52:34.281Z,0.80
2023-03-16T11:55:17.814Z,0.80
2023-03-16T11:57:58.569Z,0.80
2023-03-16T12:00:36.680Z,0.90
2023-03-16T12:03:25.386Z,0.88
2023-03-16T12:06:05.700Z,1.40
2023-03-16T12:09:13.381Z,0.80
2023-03-16T12:11:51.429Z,0.70
2023-03-16T12:14:25.270Z,0.60
2023-03-16T12:17:00.996Z,0.80
2023-03-16T12:19:41.132Z,0.77
2023-03-16T12:22:18.567Z,0.60
2023-03-16T12:24:49.041Z,0.60
2023-03-16T12:27:22.556Z,0.70
2023-03-16T12:30:03.516Z,0.70
2023-03-16T12:32:42.123Z,0.98
2023-03-16T12:35:25.479Z,0.68
2023-03-16T12:38:07.654Z,0.93
2023-03-16T12:40:46.408Z,0.73
2023-03-16T12:43:32.986Z,0.88
2023-03-16T12:46:08.059Z,0.68
2023-03-16T12:48:41.533Z,0.90
2023-03-16T12:51:10.845Z,0.90
2023-03-16T12:53:45.574Z,0.75
2023-03-16T12:56:17.878Z,0.75
2023-03-16T12:58:49.464Z,0.80
2023-03-16T13:01:21.059Z,0.65
2023-03-16T13:03:51.762Z,0.73
2023-03-16T13:06:24.128Z,0.75
2023-03-16T13:09:09.863Z,0.80
2023-03-16T13:11:50.150Z,0.80
2023-03-16T13:14:35.710Z,0.73
2023-03-16T13:19:37.864Z,0.85
2023-03-16T13:22:21.981Z,0.80
2023-03-16T13:24:55.075Z,0.90
2023-03-16T13:27:28.452Z,0.80
2023-03-16T13:29:59.296Z,0.80
2023-03-16T13:32:32.464Z,0.80
2023-03-16T13:35:03.448Z,0.52
2023-03-16T13:37:32.351Z,0.90
2023-03-16T13:40:04.568Z,0.77
2023-03-16T13:42:34.821Z,0.65
2023-03-16T13:45:15.221Z,0.95
2023-03-16T13:47:45.283Z,0.75
2023-03-16T13:50:15.952Z,0.85
2023-03-16T13:52:51.509Z,0.90
2023-03-16T13:55:32.661Z,0.80
2023-03-16T13:58:03.867Z,0.70
2023-03-16T14:00:35.697Z,0.80
2023-03-16T14:03:16.156Z,0.60
2023-03-16T14:05:50.596Z,0.77
2023-03-16T14:08:21.135Z,0.60
2023-03-16T14:10:50.730Z,0.70
2023-03-16T14:13:36.254Z,0.65
2023-03-16T14:16:12.875Z,0.60
2023-03-16T14:18:43.185Z,0.60
2023-03-16T14:21:17.645Z,0.70
2023-03-16T14:23:48.064Z,0.60
2023-03-16T14:26:18.692Z,0.70
2023-03-16T14:28:59.639Z,0.60
2023-03-16T14:31:36.318Z,0.63
2023-03-16T14:34:08.714Z,0.68
2023-03-16T14:36:39.163Z,0.77
2023-03-16T14:39:14.002Z,0.60
2023-03-16T14:41:42.424Z,0.70
2023-03-16T14:44:21.663Z,0.80
2023-03-16T14:46:50.605Z,0.60
2023-03-16T14:49:23.514Z,0.60
2023-03-16T14:51:54.478Z,0.70
2023-03-16T14:54:23.786Z,0.60
2023-03-16T14:56:54.182Z,0.65
2023-03-16T14:59:24.000Z,0.65
2023-03-16T15:01:54.554Z,0.80
2023-03-16T15:04:28.820Z,0.70
2023-03-16T15:06:58.507Z,0.90
2023-03-16T15:09:35.270Z,0.80
2023-03-16T15:12:21.590Z,0.70
2023-03-16T15:15:09.406Z,0.70
2023-03-16T15:17:38.921Z,0.70
2023-03-16T15:20:08.511Z,0.70
2023-03-16T15:22:40.499Z,0.60
2023-03-16T15:25:36.135Z,0.52
2023-03-16T15:28:12.878Z,0.90
2023-03-16T15:30:43.216Z,0.70
2023-03-16T15:33:12.679Z,0.80
2023-03-16T15:35:42.589Z,0.73
2023-03-16T15:38:15.357Z,0.85
2023-03-16T15:40:45.656Z,0.70
2023-03-16T15:43:16.319Z,0.80
2023-03-16T15:45:47.790Z,1.00
2023-03-16T15:48:17.400Z,0.77
2023-03-16T15:50:52.717Z,0.50
2023-03-16T15:53:30.944Z,0.80
2023-03-16T15:56:03.133Z,0.60
2023-03-16T15:58:33.992Z,0.80
2023-03-16T16:01:05.915Z,0.80
2023-03-16T16:03:34.779Z,0.90
2023-03-16T16:06:03.242Z,0.60
2023-03-16T16:08:31.638Z,0.63
2023-03-16T16:11:00.327Z,0.60
2023-03-16T16:13:43.411Z,0.80
2023-03-16T16:16:17.637Z,0.63
2023-03-16T16:18:47.381Z,0.77
2023-03-16T16:21:18.158Z,0.70
2023-03-16T16:23:47.704Z,0.60
2023-03-16T16:26:26.274Z,0.70
2023-03-16T16:28:58.561Z,0.82
2023-03-16T16:31:31.408Z,0.90
2023-03-16T16:34:00.064Z,0.60
2023-03-16T16:36:32.369Z,1.30
2023-03-16T16:39:00.866Z,0.73
2023-03-16T16:41:30.912Z,0.63
2023-03-16T16:44:05.112Z,0.60
2023-03-16T16:46:40.079Z,1.10
2023-03-16T16:49:15.418Z,0.60
2023-03-16T16:51:43.852Z,0.60
2023-03-16T16:54:16.667Z,0.70
2023-03-16T16:56:46.176Z,0.90
2023-03-16T16:59:18.078Z,0.60
2023-03-16T17:01:50.649Z,0.60
2023-03-16T17:04:23.225Z,1.00
2023-03-16T17:06:55.266Z,0.60
2023-03-16T17:09:24.784Z,1.20
2023-03-16T17:11:56.054Z,0.70
2023-03-16T17:14:27.495Z,0.70
2023-03-16T17:16:59.763Z,1.00
2023-03-16T17:19:29.086Z,0.77
2023-03-16T17:21:58.691Z,0.70
2023-03-16T17:24:27.397Z,0.70
2023-03-16T17:26:58.633Z,0.88
2023-03-16T17:29:29.838Z,0.75
2023-03-16T17:32:00.690Z,0.65
2023-03-16T17:34:31.101Z,1.02
2023-03-16T17:36:59.575Z,0.80
2023-03-16T17:39:29.877Z,0.80
2023-03-16T17:42:00.766Z,1.10
2023-03-16T17:44:33.716Z,1.00
2023-03-16T17:47:03.539Z,0.73
2023-03-16T17:49:32.545Z,0.70
2023-03-16T17:52:01.549Z,0.80
2023-03-16T17:54:29.933Z,0.80
2023-03-16T17:56:58.275Z,0.70
2023-03-16T17:59:27.352Z,0.70
2023-03-16T18:01:55.900Z,0.80
2023-03-16T18:04:27.387Z,0.77
2023-03-16T18:06:56.543Z,0.70
2023-03-16T18:09:24.853Z,0.85
2023-03-16T18:11:53.240Z,0.80
2023-03-16T18:14:26.325Z,0.80
2023-03-16T18:16:55.456Z,1.00
2023-03-16T18:19:27.085Z,0.80
2023-03-16T18:21:55.482Z,0.70
2023-03-16T18:24:26.609Z,0.95
2023-03-16T18:26:55.964Z,0.90
2023-03-16T18:29:24.348Z,1.00
2023-03-16T18:31:56.138Z,0.90
2023-03-16T18:34:32.149Z,1.00
2023-03-16T18:37:06.050Z,0.90
2023-03-16T18:39:34.593Z,1.00
2023-03-16T18:42:03.628Z,0.90
2023-03-16T18:44:32.699Z,0.82
2023-03-16T18:47:04.083Z,0.80
2023-03-16T18:49:36.429Z,1.20
2023-03-16T18:52:05.210Z,1.20
2023-03-16T18:54:36.371Z,1.10
2023-03-16T18:57:15.386Z,1.08
2023-03-16T18:59:43.782Z,1.13
2023-03-16T19:02:28.332Z,0.90
2023-03-16T19:05:01.464Z,0.90
2023-03-16T19:07:33.526Z,0.70
2023-03-16T19:10:04.271Z,0.88
2023-03-16T19:12:32.736Z,0.90
2023-03-16T19:15:01.134Z,0.93
2023-03-16T19:17:29.505Z,0.88
2023-03-16T19:19:59.439Z,1.00
2023-03-16T19:22:28.037Z,0.98
2023-03-16T19:24:56.807Z,1.00
2023-03-16T19:27:27.680Z,0.98
2023-03-16T19:29:56.647Z,1.10
2023-03-16T19:32:25.086Z,1.20
2023-03-16T19:34:53.624Z,0.90
2023-03-16T19:37:23.872Z,1.00
2023-03-16T19:39:52.533Z,1.02
2023-03-16T19:42:23.293Z,0.80
2023-03-16T19:44:52.047Z,1.20
2023-03-16T19:47:27.434Z,1.17
2023-03-16T19:49:56.898Z,1.02
2023-03-16T19:52:28.093Z,1.42
2023-03-16T19:54:56.413Z,0.88
2023-03-16T19:57:25.222Z,0.90
2023-03-16T19:59:57.459Z,1.10
2023-03-16T20:02:27.643Z,1.05
2023-03-16T20:04:57.315Z,0.88
2023-03-16T20:07:27.192Z,0.80
2023-03-16T20:09:55.674Z,0.90
2023-03-16T20:12:27.082Z,0.90
2023-03-16T20:14:57.392Z,1.10
2023-03-16T20:17:28.270Z,0.90
2023-03-16T20:19:57.596Z,0.82
2023-03-16T20:22:29.147Z,0.90
2023-03-16T20:24:57.912Z,0.77
2023-03-16T20:27:28.696Z,0.90
2023-03-16T20:29:57.307Z,1.00
2023-03-16T20:32:32.251Z,0.75
2023-03-16T20:35:00.797Z,0.88
2023-03-16T20:37:32.218Z,1.00
2023-03-16T20:40:01.407Z,0.82
2023-03-16T20:42:31.974Z,0.80
2023-03-16T20:45:01.189Z,0.93
2023-03-16T20:47:29.516Z,1.00
2023-03-16T20:49:58.204Z,0.90
2023-03-16T20:52:30.989Z,1.10
2023-03-16T20:55:00.953Z,0.90
2023-03-16T20:57:30.103Z,0.80
2023-03-16T20:59:59.851Z,0.90
2023-03-16T21:02:31.862Z,0.90
2023-03-16T21:05:01.652Z,0.93
2023-03-16T21:07:31.145Z,1.20
2023-03-16T21:10:00.927Z,0.82
2023-03-16T21:12:32.141Z,0.88
2023-03-16T21:15:02.460Z,0.70
2023-03-16T21:17:33.731Z,0.88
2023-03-16T21:20:02.338Z,1.02
2023-03-16T21:22:32.640Z,1.10
2023-03-16T21:25:02.512Z,0.90
2023-03-16T21:27:32.826Z,0.70
2023-03-16T21:30:07.293Z,0.80
2023-03-16T21:32:35.981Z,0.98
2023-03-16T21:35:05.120Z,1.00
2023-03-16T21:37:34.817Z,0.70
2023-03-16T21:40:15.434Z,0.80
2023-03-16T21:42:43.787Z,0.70
2023-03-16T21:45:12.575Z,0.80
2023-03-16T21:47:41.982Z,0.90
2023-03-16T21:50:17.233Z,0.73
2023-03-16T21:52:46.712Z,0.77
2023-03-16T21:55:30.244Z,0.90
2023-03-16T21:57:59.577Z,1.00
2023-03-16T22:00:30.598Z,0.75
2023-03-16T22:03:01.358Z,0.85
2023-03-16T22:05:33.810Z,0.90
2023-03-16T22:08:08.140Z,0.65
2023-03-16T22:10:39.780Z,0.93
2023-03-16T22:13:08.489Z,0.73
2023-03-16T22:15:37.802Z,0.77
2023-03-16T22:18:09.670Z,0.80
2023-03-16T22:20:38.115Z,0.70
2023-03-16T22:23:06.546Z,0.88
2023-03-16T22:25:34.882Z,0.70
2023-03-16T22:28:12.482Z,0.90
2023-03-16T22:30:41.701Z,0.80
2023-03-16T22:33:17.033Z,0.88
2023-03-16T22:35:46.079Z,0.85
2023-03-16T22:38:16.408Z,1.15
2023-03-16T22:40:44.878Z,0.80
2023-03-16T22:43:18.529Z,0.60
2023-03-16T22:45:48.579Z,0.90
2023-03-16T22:48:20.472Z,0.88
2023-03-16T22:50:50.121Z,0.77
2023-03-16T22:53:22.030Z,0.70
2023-03-16T22:55:52.266Z,0.70
2023-03-16T22:58:30.667Z,0.82
2023-03-16T23:01:01.860Z,0.90
2023-03-16T23:03:30.870Z,1.00
2023-03-16T23:05:59.629Z,0.70
2023-03-16T23:08:28.471Z,0.90
2023-03-16T23:10:57.005Z,0.70
2023-03-16T23:13:27.017Z,0.90
2023-03-16T23:15:56.747Z,0.80
2023-03-16T23:18:26.843Z,0.90
2023-03-16T23:20:55.244Z,0.60
2023-03-16T23:23:23.569Z,0.80
2023-03-16T23:25:51.933Z,0.70
2023-03-16T23:28:24.201Z,0.90
2023-03-16T23:30:54.092Z,0.80
2023-03-16T23:33:23.006Z,0.90
2023-03-16T23:35:51.537Z,0.70
2023-03-16T23:38:20.092Z,0.80
2023-03-16T23:40:49.304Z,0.80
2023-03-16T23:43:17.761Z,0.70
2023-03-16T23:45:47.541Z,0.80
2023-03-16T23:48:20.080Z,0.70
2023-03-16T23:50:50.357Z,0.75
2023-03-16T23:53:20.376Z,0.80
2023-03-16T23:55:49.064Z,0.90
2023-03-16T23:58:17.466Z,0.80
